Terminal Aerodrome Forecast
Issued by NWS

Home | Current Version | Previous Version | Text Only | Print | Product List | Glossary On
Versions: 1 2 3 4 5 6 7 8 9 10 11 12 13
000
FTUS46 KHNX 201141
TAFVIS
TAF
KVIS 201141Z 2012/2112 31008KT P6SM SKC
     FM210200 32013KT P6SM SCT250
     FM210900 33011G18KT P6SM BKN100=

USA.gov is the U.S. government's official web portal to all federal, state and local government web resources and services.